Time;durP1;ratioP1;P1;durP2;ratioP2;P2;SDS_P1;SDS_P2;PMS_P1;PMS_P2;Temp;Humidity;BMP_temperature;BMP_pressure;BME280_temperature;BME280_humidity;BME280_pressure;Samples;Min_cycle;Max_cycle;Signal;HPM_P1;HPM_P2
2023/07/26 00:00:29;;;;;;;11.90;7.90;;;14.80;99.90;;;;;;5051443;28;20184;-33
2023/07/26 00:02:55;;;;;;;9.20;7.20;;;14.80;99.90;;;;;;5049643;28;20181;-33
2023/07/26 00:05:21;;;;;;;8.27;7.40;;;14.80;99.90;;;;;;5049759;28;20197;-33
2023/07/26 00:07:47;;;;;;;11.87;7.50;;;14.80;99.90;;;;;;5049421;28;20177;-31
2023/07/26 00:10:13;;;;;;;8.20;7.40;;;14.70;99.90;;;;;;5032942;28;20202;-32
2023/07/26 00:12:39;;;;;;;9.03;8.23;;;14.70;99.90;;;;;;5032658;28;20182;-33
2023/07/26 00:15:06;;;;;;;11.27;8.20;;;14.70;99.90;;;;;;5029974;28;20186;-32
2023/07/26 00:17:32;;;;;;;9.83;7.90;;;14.70;99.90;;;;;;5049214;28;20186;-34
2023/07/26 00:19:58;;;;;;;11.83;7.63;;;14.70;99.90;;;;;;5049724;28;20336;-32
2023/07/26 00:22:25;;;;;;;8.83;7.77;;;14.70;99.90;;;;;;5050085;28;20189;-31
2023/07/26 00:24:51;;;;;;;10.87;8.03;;;14.70;99.90;;;;;;5050135;28;20181;-34
2023/07/26 00:27:17;;;;;;;8.83;7.10;;;14.70;99.90;;;;;;5044080;28;20185;-32
2023/07/26 00:29:43;;;;;;;8.13;7.03;;;14.70;99.90;;;;;;5032155;28;20201;-33
2023/07/26 00:32:10;;;;;;;8.23;7.33;;;14.60;99.90;;;;;;5050584;28;20269;-33
2023/07/26 00:34:36;;;;;;;9.50;7.30;;;14.60;99.90;;;;;;5049582;28;20268;-31
2023/07/26 00:37:03;;;;;;;8.17;6.67;;;14.60;99.90;;;;;;5049120;28;20277;-32
2023/07/26 00:39:30;;;;;;;7.80;7.00;;;14.60;99.90;;;;;;5048150;28;20310;-33
2023/07/26 00:41:56;;;;;;;9.10;7.67;;;14.60;99.90;;;;;;5048397;28;20174;-31
2023/07/26 00:44:22;;;;;;;10.17;6.87;;;14.60;99.90;;;;;;5048720;28;20190;-33
2023/07/26 00:46:48;;;;;;;8.63;7.63;;;14.70;99.90;;;;;;5032640;28;20178;-33
2023/07/26 00:49:15;;;;;;;9.40;7.03;;;14.70;99.90;;;;;;5063750;28;20204;-33
2023/07/26 00:51:42;;;;;;;8.50;7.37;;;14.70;99.90;;;;;;5052326;28;20202;-33
2023/07/26 00:54:08;;;;;;;11.27;7.07;;;14.80;99.90;;;;;;5049850;28;20189;-32
2023/07/26 00:56:35;;;;;;;8.47;7.50;;;14.80;99.90;;;;;;5032695;28;20182;-32
2023/07/26 00:59:02;;;;;;;8.20;7.40;;;14.80;99.90;;;;;;5049401;28;20213;-33
2023/07/26 01:01:28;;;;;;;8.87;6.90;;;14.70;99.90;;;;;;5049477;28;20189;-32
2023/07/26 01:03:54;;;;;;;7.47;6.70;;;14.70;99.90;;;;;;5049232;28;20185;-33
2023/07/26 01:06:31;;;;;;;7.67;6.77;;;14.70;99.90;;;;;;5033051;28;20178;-34
2023/07/26 01:09:24;;;;;;;9.40;7.80;;;14.70;99.90;;;;;;5040649;28;20263;-33
2023/07/26 01:12:05;;;;;;;12.50;7.53;;;14.70;99.90;;;;;;5044681;28;20216;-33
2023/07/26 01:15:02;;;;;;;9.47;7.77;;;14.60;99.90;;;;;;5042395;28;20239;-32
2023/07/26 01:17:29;;;;;;;10.03;7.77;;;14.60;99.90;;;;;;5035932;28;20197;-33
2023/07/26 01:19:56;;;;;;;12.47;8.40;;;14.60;99.90;;;;;;5028296;28;20214;-34
2023/07/26 01:22:22;;;;;;;10.20;9.10;;;14.60;99.90;;;;;;5031619;28;20200;-33
2023/07/26 01:24:47;;;;;;;9.20;8.10;;;14.60;99.90;;;;;;5033288;28;20181;-35
2023/07/26 01:27:13;;;;;;;11.43;9.17;;;14.60;99.90;;;;;;5049472;28;20213;-34
2023/07/26 01:29:40;;;;;;;9.03;8.13;;;14.50;99.90;;;;;;5032781;28;20206;-33
2023/07/26 01:32:12;;;;;;;11.73;8.30;;;14.50;99.90;;;;;;5033258;28;20186;-33
2023/07/26 01:34:38;;;;;;;11.00;8.50;;;14.60;99.90;;;;;;5032689;28;20240;-36
2023/07/26 01:37:07;;;;;;;13.67;7.70;;;14.60;99.90;;;;;;5050440;28;20216;-35
2023/07/26 01:39:33;;;;;;;8.33;7.03;;;14.50;99.90;;;;;;5050550;28;20206;-35
2023/07/26 01:41:59;;;;;;;6.53;5.80;;;14.50;99.90;;;;;;5033474;28;20663;-33
2023/07/26 01:44:25;;;;;;;6.20;5.13;;;14.40;99.90;;;;;;5033021;28;20188;-32
2023/07/26 01:46:52;;;;;;;6.30;5.43;;;14.40;99.90;;;;;;5032266;28;20170;-33
2023/07/26 01:49:21;;;;;;;6.37;5.37;;;14.40;99.90;;;;;;5049114;28;20293;-33
2023/07/26 01:51:46;;;;;;;5.33;4.83;;;14.40;99.90;;;;;;5052036;28;20200;-33
2023/07/26 01:54:12;;;;;;;4.77;4.07;;;14.40;99.90;;;;;;5052253;28;20253;-33
2023/07/26 01:56:38;;;;;;;4.70;4.20;;;14.30;99.90;;;;;;5052489;28;20250;-32
2023/07/26 01:59:04;;;;;;;4.40;4.00;;;14.20;99.90;;;;;;5035265;28;20259;-33
2023/07/26 02:01:30;;;;;;;4.70;4.30;;;14.30;99.90;;;;;;5052033;28;20277;-35
2023/07/26 02:03:55;;;;;;;5.70;5.20;;;14.30;99.90;;;;;;5035897;28;20174;-33
2023/07/26 02:06:21;;;;;;;5.60;5.10;;;14.30;99.90;;;;;;5052112;28;20204;-33
2023/07/26 02:08:47;;;;;;;5.83;5.20;;;14.30;99.90;;;;;;5051513;28;20213;-33
2023/07/26 02:11:13;;;;;;;5.50;5.00;;;14.30;99.90;;;;;;5052634;28;20193;-33
2023/07/26 02:13:39;;;;;;;8.10;5.83;;;14.20;99.90;;;;;;5033967;28;20299;-32
2023/07/26 02:16:05;;;;;;;6.47;5.50;;;14.20;99.90;;;;;;5051964;28;20189;-34
2023/07/26 02:18:32;;;;;;;6.70;5.83;;;14.20;99.90;;;;;;5035162;28;20251;-33
2023/07/26 02:20:59;;;;;;;6.73;5.13;;;14.20;99.90;;;;;;5052039;28;20719;-33
2023/07/26 02:23:25;;;;;;;6.77;5.33;;;14.20;99.90;;;;;;5051387;28;20182;-32
2023/07/26 02:25:50;;;;;;;6.47;5.87;;;14.20;99.90;;;;;;5045918;28;20209;-32
2023/07/26 02:28:19;;;;;;;6.93;6.20;;;14.20;99.90;;;;;;5035478;28;20186;-33
2023/07/26 02:30:45;;;;;;;6.07;5.47;;;14.20;99.90;;;;;;5052547;28;20290;-32
2023/07/26 02:33:11;;;;;;;6.07;5.47;;;14.20;99.90;;;;;;5031743;28;20180;-33
2023/07/26 02:35:37;;;;;;;6.47;5.50;;;14.20;99.90;;;;;;5051615;28;20197;-33
2023/07/26 02:38:03;;;;;;;6.40;5.73;;;14.20;99.90;;;;;;5051624;28;20196;-33
2023/07/26 02:40:29;;;;;;;7.23;5.13;;;14.10;99.90;;;;;;5051078;28;20264;-33
2023/07/26 02:42:55;;;;;;;6.23;4.90;;;14.10;99.90;;;;;;5051851;28;20182;-33
2023/07/26 02:45:21;;;;;;;5.43;4.60;;;14.10;99.90;;;;;;5051452;28;20228;-33
2023/07/26 02:47:47;;;;;;;5.33;4.83;;;14.00;99.90;;;;;;5051485;28;20202;-33
2023/07/26 02:50:14;;;;;;;5.30;4.80;;;14.00;99.90;;;;;;5058455;28;20197;-33
2023/07/26 02:52:40;;;;;;;6.40;4.80;;;14.00;99.90;;;;;;5052400;28;20190;-33
2023/07/26 02:55:06;;;;;;;5.93;5.37;;;14.00;99.90;;;;;;5049492;28;20182;-33
2023/07/26 02:57:32;;;;;;;6.20;5.10;;;14.00;99.90;;;;;;5034413;28;20249;-33
2023/07/26 02:59:58;;;;;;;5.63;5.13;;;13.90;99.90;;;;;;5034464;28;20304;-33
2023/07/26 03:02:24;;;;;;;9.47;5.40;;;14.00;99.90;;;;;;5033738;28;20182;-33
2023/07/26 03:04:50;;;;;;;6.17;4.70;;;14.00;99.90;;;;;;5034361;28;20253;-33
2023/07/26 03:07:15;;;;;;;5.03;4.57;;;13.90;99.90;;;;;;5049506;28;20177;-32
2023/07/26 03:09:41;;;;;;;5.20;4.70;;;13.90;99.90;;;;;;5034950;28;20227;-33
2023/07/26 03:12:07;;;;;;;5.27;4.77;;;13.90;99.90;;;;;;5051068;28;20671;-33
2023/07/26 03:14:34;;;;;;;6.70;4.73;;;13.90;99.90;;;;;;5050601;28;20189;-33
2023/07/26 03:17:00;;;;;;;5.60;5.03;;;13.90;99.90;;;;;;5050948;28;20178;-33
2023/07/26 03:19:26;;;;;;;5.03;4.57;;;13.90;99.90;;;;;;5050697;28;20197;-32
2023/07/26 03:21:52;;;;;;;7.10;5.50;;;13.90;99.90;;;;;;5034351;28;20213;-32
2023/07/26 03:24:18;;;;;;;5.83;5.33;;;13.90;99.90;;;;;;5050642;28;20202;-33
2023/07/26 03:26:44;;;;;;;5.50;4.87;;;14.00;99.90;;;;;;5050574;28;20193;-33
2023/07/26 03:29:10;;;;;;;5.87;5.27;;;14.00;99.90;;;;;;5050455;28;20210;-33
2023/07/26 03:31:36;;;;;;;5.60;5.10;;;14.00;99.90;;;;;;5050670;28;20174;-33
2023/07/26 03:34:01;;;;;;;5.83;5.23;;;14.00;99.90;;;;;;5050444;28;20174;-32
2023/07/26 03:36:27;;;;;;;6.40;5.80;;;14.10;99.90;;;;;;5050634;28;20186;-32
2023/07/26 03:38:53;;;;;;;7.80;5.57;;;14.10;99.90;;;;;;5050467;28;20228;-32
2023/07/26 03:41:19;;;;;;;8.97;6.20;;;14.10;99.90;;;;;;5033854;28;20182;-33
2023/07/26 03:43:45;;;;;;;6.43;5.43;;;14.10;99.90;;;;;;5034280;28;20220;-33
2023/07/26 03:46:10;;;;;;;7.70;6.27;;;14.10;99.90;;;;;;5033847;28;20170;-33
2023/07/26 03:48:37;;;;;;;6.63;6.00;;;14.20;99.90;;;;;;5033768;28;20269;-33
2023/07/26 03:51:03;;;;;;;8.27;5.87;;;14.20;99.90;;;;;;5033404;28;20260;-31
2023/07/26 03:53:28;;;;;;;6.80;6.10;;;14.20;99.90;;;;;;5050147;28;20178;-32
2023/07/26 03:55:55;;;;;;;6.57;5.87;;;14.10;99.90;;;;;;5049727;28;20189;-33
2023/07/26 03:58:21;;;;;;;6.43;5.77;;;14.10;99.90;;;;;;5049990;28;20209;-33
2023/07/26 04:00:47;;;;;;;8.83;6.20;;;14.10;99.90;;;;;;5033531;28;20174;-33
2023/07/26 04:03:13;;;;;;;7.63;5.93;;;14.10;99.90;;;;;;5049260;28;20174;-32
2023/07/26 04:05:38;;;;;;;6.97;6.30;;;14.10;99.90;;;;;;5049568;28;20174;-33
2023/07/26 04:08:06;;;;;;;7.60;5.47;;;14.20;99.90;;;;;;5033349;28;20198;-33
2023/07/26 04:10:33;;;;;;;5.77;4.90;;;14.20;99.90;;;;;;5048750;28;20170;-33
2023/07/26 04:12:58;;;;;;;7.20;6.50;;;14.20;99.90;;;;;;5066240;28;20174;-33
2023/07/26 04:15:24;;;;;;;7.57;6.00;;;14.20;99.90;;;;;;5048522;28;20201;-33
2023/07/26 04:17:51;;;;;;;7.87;6.50;;;14.10;99.90;;;;;;5048646;28;20178;-33
2023/07/26 04:20:18;;;;;;;8.63;7.20;;;14.10;99.90;;;;;;5049457;28;20209;-34
2023/07/26 04:22:44;;;;;;;7.90;7.10;;;14.10;99.90;;;;;;5031981;28;20173;-33
2023/07/26 04:25:11;;;;;;;10.23;7.13;;;14.10;99.90;;;;;;5050868;28;20182;-33
2023/07/26 04:27:37;;;;;;;9.17;7.40;;;14.10;99.90;;;;;;5051162;28;20170;-33
2023/07/26 04:30:04;;;;;;;8.30;6.83;;;14.10;99.90;;;;;;5034289;28;20209;-33
2023/07/26 04:32:30;;;;;;;7.40;6.70;;;14.00;99.90;;;;;;5032815;28;20264;-33
2023/07/26 04:34:56;;;;;;;10.10;6.90;;;14.10;99.90;;;;;;5033209;28;20193;-35
2023/07/26 04:37:22;;;;;;;8.43;7.57;;;14.10;99.90;;;;;;5045623;28;20280;-32
2023/07/26 04:39:48;;;;;;;9.10;6.87;;;14.10;99.90;;;;;;5031583;28;20225;-30
2023/07/26 04:42:14;;;;;;;8.27;7.33;;;14.10;99.90;;;;;;5048019;28;20181;-32
2023/07/26 04:44:40;;;;;;;9.60;6.37;;;14.00;99.90;;;;;;5031750;28;20185;-32
2023/07/26 04:47:06;;;;;;;7.57;6.80;;;14.00;99.90;;;;;;5047867;28;20189;-33
2023/07/26 04:49:32;;;;;;;9.03;6.90;;;14.00;99.90;;;;;;5031618;28;20212;-32
2023/07/26 04:51:58;;;;;;;8.07;6.90;;;13.90;99.90;;;;;;5048563;28;20212;-33
2023/07/26 04:54:24;;;;;;;8.30;6.90;;;13.90;99.90;;;;;;5049771;28;20189;-33
2023/07/26 04:56:49;;;;;;;8.50;6.37;;;13.90;99.90;;;;;;5045662;28;20245;-33
2023/07/26 04:59:15;;;;;;;8.60;7.03;;;13.90;99.90;;;;;;5041937;28;20205;-33
2023/07/26 05:01:41;;;;;;;10.40;6.63;;;13.90;99.90;;;;;;5047810;28;20185;-33
2023/07/26 05:04:09;;;;;;;9.03;7.53;;;13.90;99.90;;;;;;5049042;28;20197;-32
2023/07/26 05:06:36;;;;;;;7.63;6.43;;;13.90;99.90;;;;;;5049515;28;20182;-32
2023/07/26 05:09:04;;;;;;;9.83;7.03;;;13.90;99.90;;;;;;5032992;28;20209;-34
2023/07/26 05:11:31;;;;;;;8.60;6.67;;;13.90;99.90;;;;;;5032750;28;20197;-32
2023/07/26 05:13:57;;;;;;;7.47;6.77;;;14.00;99.90;;;;;;5032593;28;20186;-33
2023/07/26 05:16:22;;;;;;;11.60;6.50;;;14.00;99.90;;;;;;5032561;28;20190;-33
2023/07/26 05:18:48;;;;;;;7.60;6.73;;;14.00;99.90;;;;;;5049519;28;20221;-33
2023/07/26 05:21:14;;;;;;;7.43;6.43;;;14.00;99.90;;;;;;5049556;28;20182;-33
2023/07/26 05:23:40;;;;;;;7.93;6.17;;;14.00;99.90;;;;;;5049153;28;20220;-33
2023/07/26 05:26:06;;;;;;;6.90;6.20;;;14.00;99.90;;;;;;5051076;28;20256;-33
2023/07/26 05:28:31;;;;;;;6.83;6.23;;;14.00;99.90;;;;;;5036239;28;20209;-32
2023/07/26 05:30:57;;;;;;;7.20;5.80;;;14.00;99.90;;;;;;5052684;28;20178;-33
2023/07/26 05:33:23;;;;;;;6.17;5.50;;;14.00;99.90;;;;;;5032880;28;20209;-32
2023/07/26 05:35:49;;;;;;;9.10;6.47;;;14.00;99.90;;;;;;5052224;28;20197;-32
2023/07/26 05:38:15;;;;;;;8.10;5.33;;;14.00;99.90;;;;;;5035939;28;20182;-31
2023/07/26 05:40:41;;;;;;;10.87;5.80;;;14.00;99.90;;;;;;5041030;28;20177;-33
2023/07/26 05:43:06;;;;;;;6.33;5.73;;;14.00;99.90;;;;;;5074760;28;20181;-33
2023/07/26 05:45:32;;;;;;;6.93;6.17;;;14.00;99.90;;;;;;5058200;28;20250;-29
2023/07/26 05:47:58;;;;;;;7.47;6.10;;;13.90;99.90;;;;;;5072342;28;20173;-32
2023/07/26 05:50:24;;;;;;;9.33;5.80;;;13.90;99.90;;;;;;5056142;28;20224;-33
2023/07/26 05:52:50;;;;;;;6.67;5.97;;;13.90;99.90;;;;;;5072402;28;20234;-33
2023/07/26 05:55:15;;;;;;;11.87;5.63;;;13.90;99.90;;;;;;5047254;28;20221;-33
2023/07/26 05:57:41;;;;;;;6.40;5.67;;;13.90;99.90;;;;;;5035835;28;20186;-31
2023/07/26 06:00:08;;;;;;;8.53;6.30;;;13.90;99.90;;;;;;5035916;28;20313;-32
2023/07/26 06:02:37;;;;;;;7.13;6.00;;;13.90;99.90;;;;;;5052572;28;20196;-34
2023/07/26 06:05:05;;;;;;;7.20;6.17;;;13.80;99.90;;;;;;5052677;28;20182;-32
2023/07/26 06:07:31;;;;;;;5.87;4.90;;;13.80;99.90;;;;;;5035908;28;20192;-33
2023/07/26 06:09:57;;;;;;;6.83;6.00;;;13.80;99.90;;;;;;5053723;28;20206;-33
2023/07/26 06:12:23;;;;;;;6.03;5.50;;;13.80;99.90;;;;;;5035020;28;20205;-30
2023/07/26 06:14:49;;;;;;;6.10;5.60;;;13.80;99.90;;;;;;5050604;28;20300;-33
2023/07/26 06:17:15;;;;;;;6.10;5.50;;;13.80;99.90;;;;;;5055427;28;20248;-33
2023/07/26 06:19:41;;;;;;;7.57;5.77;;;13.80;99.90;;;;;;5055423;28;20213;-33
2023/07/26 06:22:07;;;;;;;7.17;5.67;;;13.80;99.90;;;;;;5071606;28;20196;-33
2023/07/26 06:24:33;;;;;;;6.63;5.93;;;13.80;99.90;;;;;;5069252;28;20208;-32
2023/07/26 06:26:59;;;;;;;7.73;5.73;;;13.90;99.90;;;;;;5067798;28;20213;-32
2023/07/26 06:29:24;;;;;;;7.23;5.70;;;13.90;99.90;;;;;;5068125;28;20350;-33
2023/07/26 06:31:50;;;;;;;6.50;5.90;;;14.00;99.90;;;;;;5068618;28;20188;-33
2023/07/26 06:34:16;;;;;;;8.90;5.77;;;14.10;99.90;;;;;;5068566;28;20185;-33
2023/07/26 06:36:42;;;;;;;9.60;5.70;;;14.10;99.90;;;;;;5051136;28;20269;-34
2023/07/26 06:39:08;;;;;;;6.47;5.60;;;14.20;99.90;;;;;;5068600;28;20221;-32
2023/07/26 06:41:34;;;;;;;6.10;5.40;;;14.20;99.90;;;;;;5068462;28;20182;-31
2023/07/26 06:44:00;;;;;;;7.90;5.53;;;14.30;99.90;;;;;;5068265;28;20244;-33
2023/07/26 06:46:25;;;;;;;10.20;5.67;;;14.30;99.90;;;;;;5068216;28;20284;-33
2023/07/26 06:48:51;;;;;;;7.80;5.80;;;14.30;99.90;;;;;;5052053;28;20288;-33
2023/07/26 06:51:17;;;;;;;7.70;5.73;;;14.30;99.90;;;;;;5068359;28;20177;-32
2023/07/26 06:53:43;;;;;;;7.60;5.30;;;14.30;99.90;;;;;;5051410;28;20206;-32
2023/07/26 06:56:09;;;;;;;6.60;4.73;;;14.20;99.90;;;;;;5055561;28;20286;-33
2023/07/26 06:58:34;;;;;;;5.93;4.90;;;14.20;99.90;;;;;;5051095;28;20214;-33
2023/07/26 07:01:00;;;;;;;5.43;4.77;;;14.20;99.90;;;;;;5034922;28;20235;-33
2023/07/26 07:03:28;;;;;;;5.83;4.90;;;14.20;99.90;;;;;;5034696;28;20198;-33
2023/07/26 07:05:53;;;;;;;7.67;5.37;;;14.20;99.90;;;;;;5051404;28;20185;-33
2023/07/26 07:08:19;;;;;;;6.83;5.47;;;14.20;99.90;;;;;;5051243;28;20178;-33
2023/07/26 07:10:45;;;;;;;8.30;4.97;;;14.20;99.90;;;;;;5034888;28;20220;-33
2023/07/26 07:13:11;;;;;;;7.30;5.87;;;14.20;99.90;;;;;;5034473;28;20170;-33
2023/07/26 07:15:37;;;;;;;8.23;6.23;;;14.30;99.90;;;;;;5034235;28;20203;-32
2023/07/26 07:18:03;;;;;;;5.57;5.03;;;14.30;99.90;;;;;;5051285;28;20182;-33
2023/07/26 07:20:29;;;;;;;8.30;5.30;;;14.40;99.90;;;;;;5034715;28;20185;-33
2023/07/26 07:22:55;;;;;;;6.50;5.37;;;14.40;99.90;;;;;;5034388;28;20178;-33
2023/07/26 07:25:21;;;;;;;6.93;5.57;;;14.40;99.90;;;;;;5050632;28;20184;-33
2023/07/26 07:27:47;;;;;;;5.60;4.97;;;14.50;99.90;;;;;;5050539;28;20224;-32
2023/07/26 07:30:14;;;;;;;5.70;4.90;;;14.50;99.90;;;;;;5033837;28;20205;-33
2023/07/26 07:32:40;;;;;;;5.67;4.63;;;14.50;99.90;;;;;;5034113;28;20268;-32
2023/07/26 07:35:07;;;;;;;5.03;4.43;;;14.60;99.90;;;;;;5051131;28;20257;-33
2023/07/26 07:37:33;;;;;;;5.67;5.00;;;14.60;99.90;;;;;;5050860;28;20209;-34
2023/07/26 07:40:01;;;;;;;7.13;5.13;;;14.60;99.90;;;;;;5051249;28;20245;-34
2023/07/26 07:42:27;;;;;;;7.07;5.23;;;14.60;99.90;;;;;;5033950;28;20245;-32
2023/07/26 07:44:53;;;;;;;5.60;4.43;;;14.60;99.90;;;;;;5051024;28;20276;-33
2023/07/26 07:47:19;;;;;;;6.33;5.00;;;14.60;99.90;;;;;;5034143;28;20219;-33
2023/07/26 07:49:46;;;;;;;7.13;5.10;;;14.50;99.90;;;;;;5034105;28;20220;-33
2023/07/26 07:52:12;;;;;;;8.00;5.37;;;14.40;99.90;;;;;;5034133;28;20232;-29
2023/07/26 07:54:38;;;;;;;6.30;5.70;;;14.40;99.90;;;;;;5050671;28;20182;-32
2023/07/26 07:57:04;;;;;;;6.93;5.13;;;14.40;99.90;;;;;;5033892;28;20194;-34
2023/07/26 07:59:30;;;;;;;7.27;5.80;;;14.40;99.90;;;;;;5050655;28;20265;-33
2023/07/26 08:01:56;;;;;;;6.13;5.40;;;14.40;99.90;;;;;;5050753;28;20174;-35
2023/07/26 08:04:21;;;;;;;6.73;5.03;;;14.40;99.90;;;;;;5050590;28;20224;-35
2023/07/26 08:06:47;;;;;;;6.20;4.90;;;14.30;99.90;;;;;;5033786;28;20220;-35
2023/07/26 08:09:13;;;;;;;5.43;4.97;;;14.30;99.90;;;;;;5034026;28;20206;-34
2023/07/26 08:11:39;;;;;;;5.37;4.20;;;14.40;99.90;;;;;;5033783;28;20185;-33
2023/07/26 08:14:05;;;;;;;4.13;3.70;;;14.30;99.90;;;;;;5050528;28;20660;-32
2023/07/26 08:16:30;;;;;;;4.47;3.30;;;14.30;99.90;;;;;;5033457;28;20227;-33
2023/07/26 08:19:01;;;;;;;5.80;3.47;;;14.20;99.90;;;;;;5033852;28;20217;-34
2023/07/26 08:21:27;;;;;;;3.80;2.90;;;14.20;99.90;;;;;;5034182;28;20228;-33
2023/07/26 08:23:52;;;;;;;4.20;2.67;;;14.10;99.90;;;;;;5033398;28;20209;-33
2023/07/26 08:26:18;;;;;;;3.97;2.50;;;14.10;99.90;;;;;;5032480;28;20228;-33
2023/07/26 08:28:44;;;;;;;3.87;2.57;;;14.00;99.90;;;;;;5049652;28;20210;-32
2023/07/26 08:31:11;;;;;;;4.17;2.90;;;14.00;99.90;;;;;;5033495;28;20219;-32
2023/07/26 08:33:36;;;;;;;3.20;2.90;;;14.00;99.90;;;;;;5033454;28;20218;-33
2023/07/26 08:36:02;;;;;;;4.97;2.70;;;14.00;99.90;;;;;;5032740;28;20217;-31
2023/07/26 08:38:28;;;;;;;4.60;2.70;;;13.90;99.90;;;;;;5033471;28;20218;-32
2023/07/26 08:40:54;;;;;;;2.83;2.50;;;13.90;99.90;;;;;;5050258;28;20198;-33
2023/07/26 08:43:23;;;;;;;2.70;2.50;;;13.80;99.90;;;;;;5033064;28;20216;-33
2023/07/26 08:45:50;;;;;;;3.17;2.60;;;13.80;99.90;;;;;;5033067;28;20178;-33
2023/07/26 08:48:18;;;;;;;3.23;2.43;;;13.80;99.90;;;;;;5033098;28;20193;-33
2023/07/26 08:50:44;;;;;;;3.57;2.10;;;13.80;99.90;;;;;;5049531;28;20178;-33
2023/07/26 08:53:10;;;;;;;1.80;1.70;;;13.80;99.90;;;;;;5033152;28;20216;-33
2023/07/26 08:55:36;;;;;;;2.90;1.90;;;13.80;99.90;;;;;;5040323;28;20182;-32
2023/07/26 08:58:04;;;;;;;3.20;2.00;;;13.90;99.90;;;;;;5049600;28;20197;-33
2023/07/26 09:00:30;;;;;;;3.60;2.07;;;13.90;99.90;;;;;;5050675;28;20212;-33
2023/07/26 09:03:01;;;;;;;2.70;2.10;;;13.80;99.90;;;;;;5053758;28;20189;-34
2023/07/26 09:05:27;;;;;;;2.77;1.80;;;13.80;99.90;;;;;;5053928;28;20181;-32
2023/07/26 09:07:53;;;;;;;2.50;1.90;;;13.70;99.90;;;;;;5037019;28;20189;-32
2023/07/26 09:10:30;;;;;;;1.90;1.70;;;13.70;99.90;;;;;;5037195;28;20205;-32
2023/07/26 09:13:13;;;;;;;2.47;2.00;;;13.80;99.90;;;;;;5036884;28;20192;-31
2023/07/26 09:15:41;;;;;;;1.70;1.60;;;13.80;99.90;;;;;;5053141;28;20276;-33
2023/07/26 09:18:08;;;;;;;1.43;1.30;;;13.90;99.90;;;;;;5037111;28;20272;-33
2023/07/26 09:20:35;;;;;;;1.40;1.20;;;13.90;99.90;;;;;;5053323;28;20186;-33
2023/07/26 09:23:04;;;;;;;1.70;1.43;;;14.00;99.90;;;;;;5036719;28;20193;-34
2023/07/26 09:25:35;;;;;;;2.63;1.50;;;14.10;99.90;;;;;;5036580;28;20178;-31
2023/07/26 09:28:06;;;;;;;2.63;1.90;;;14.20;99.90;;;;;;5036604;28;20205;-33
2023/07/26 09:30:40;;;;;;;2.33;1.60;;;14.40;99.90;;;;;;5053150;28;20189;-32
2023/07/26 09:33:08;;;;;;;1.67;1.50;;;14.60;99.90;;;;;;5053391;28;20185;-33
2023/07/26 09:35:49;;;;;;;2.27;1.50;;;14.70;99.90;;;;;;5052513;28;20186;-33
2023/07/26 09:38:24;;;;;;;1.87;1.40;;;14.90;99.90;;;;;;5052117;28;20182;-32
2023/07/26 09:40:50;;;;;;;1.40;1.30;;;15.20;99.90;;;;;;5036641;28;20254;-33
2023/07/26 09:43:30;;;;;;;1.77;1.20;;;15.40;99.90;;;;;;5035619;28;20182;-34
2023/07/26 09:46:03;;;;;;;2.40;1.40;;;15.80;99.90;;;;;;5052901;28;20276;-33
2023/07/26 09:48:29;;;;;;;1.97;1.50;;;16.00;99.90;;;;;;5052919;28;20376;-33
2023/07/26 09:50:56;;;;;;;2.00;1.43;;;16.20;99.90;;;;;;5053084;28;20250;-33
2023/07/26 09:53:23;;;;;;;1.87;1.23;;;16.20;99.90;;;;;;5032361;28;20187;-33
2023/07/26 09:55:50;;;;;;;1.57;1.27;;;16.10;99.90;;;;;;5050223;28;20219;-33
2023/07/26 09:58:19;;;;;;;3.13;1.70;;;16.00;99.90;;;;;;5053793;28;20281;-34
2023/07/26 10:00:48;;;;;;;2.80;1.80;;;15.80;99.90;;;;;;5044350;28;20317;-34
2023/07/26 10:03:18;;;;;;;2.77;1.90;;;15.60;99.90;;;;;;5051856;28;20247;-33
2023/07/26 10:05:48;;;;;;;1.83;1.67;;;15.40;99.90;;;;;;5052626;28;20182;-33
2023/07/26 10:08:14;;;;;;;2.57;1.63;;;15.40;99.90;;;;;;5052178;28;20209;-32
2023/07/26 10:10:42;;;;;;;4.10;2.27;;;15.40;99.90;;;;;;5051982;28;20178;-33
2023/07/26 10:13:10;;;;;;;4.03;2.13;;;15.40;99.90;;;;;;5052607;28;20272;-33
2023/07/26 10:15:41;;;;;;;3.13;2.00;;;15.30;99.90;;;;;;5052067;28;20196;-32
2023/07/26 10:18:07;;;;;;;2.07;1.80;;;15.20;99.90;;;;;;5035791;28;20166;-35
2023/07/26 10:20:36;;;;;;;3.40;2.00;;;15.20;99.90;;;;;;5035763;28;20213;-35
2023/07/26 10:23:04;;;;;;;2.23;1.80;;;15.20;99.90;;;;;;5035381;28;20178;-33
2023/07/26 10:25:33;;;;;;;4.23;2.00;;;15.20;99.90;;;;;;5036147;28;20209;-34
2023/07/26 10:27:59;;;;;;;2.73;2.13;;;15.30;99.90;;;;;;5035610;28;20182;-33
2023/07/26 10:30:25;;;;;;;2.10;1.80;;;15.50;99.90;;;;;;5035680;28;20214;-34
2023/07/26 10:32:51;;;;;;;2.30;2.10;;;15.60;99.90;;;;;;5052272;28;20182;-33
2023/07/26 10:35:31;;;;;;;3.00;2.00;;;15.70;99.90;;;;;;5053497;28;20174;-32
2023/07/26 10:37:59;;;;;;;2.23;1.80;;;15.90;99.90;;;;;;5035399;28;20212;-33
2023/07/26 10:40:33;;;;;;;3.23;1.70;;;16.10;99.90;;;;;;5035668;28;20300;-32
2023/07/26 10:42:59;;;;;;;2.90;2.13;;;16.20;99.90;;;;;;5051628;28;20245;-33
2023/07/26 10:45:44;;;;;;;1.83;1.50;;;16.30;99.90;;;;;;5051764;28;20272;-33
2023/07/26 10:48:36;;;;;;;1.50;1.40;;;16.20;99.90;;;;;;5051598;28;20285;-35
2023/07/26 10:51:22;;;;;;;2.07;1.20;;;16.10;99.90;;;;;;5051650;28;20189;-32
2023/07/26 10:53:48;;;;;;;2.20;1.30;;;16.00;99.90;;;;;;5051858;28;20186;-34
2023/07/26 10:56:24;;;;;;;2.00;1.50;;;15.80;99.90;;;;;;5035043;28;20218;-32
2023/07/26 10:58:56;;;;;;;1.63;1.43;;;15.60;99.90;;;;;;5048538;28;20225;-33
2023/07/26 11:01:44;;;;;;;2.30;1.63;;;15.40;99.90;;;;;;5047707;28;20258;-33
2023/07/26 11:04:20;;;;;;;2.63;1.90;;;15.20;99.90;;;;;;5043078;28;20273;-33
2023/07/26 11:07:00;;;;;;;3.07;1.80;;;15.00;99.90;;;;;;5046401;28;20207;-34
2023/07/26 11:09:31;;;;;;;2.70;1.80;;;14.80;99.90;;;;;;5047163;28;20204;-30
2023/07/26 11:11:58;;;;;;;2.27;1.83;;;14.70;99.90;;;;;;5060002;28;20178;-33
2023/07/26 11:14:26;;;;;;;3.70;2.10;;;14.70;99.90;;;;;;5053526;28;20335;-32
2023/07/26 11:16:55;;;;;;;2.40;1.90;;;14.90;99.90;;;;;;5055654;28;20186;-32
2023/07/26 11:19:21;;;;;;;2.43;2.00;;;15.00;99.90;;;;;;5055306;28;20209;-33
2023/07/26 11:21:46;;;;;;;2.13;1.60;;;15.10;99.90;;;;;;5058976;28;20176;-33
2023/07/26 11:24:12;;;;;;;2.73;1.80;;;15.20;99.90;;;;;;5059237;28;20251;-32
2023/07/26 11:26:46;;;;;;;3.07;2.50;;;15.30;99.90;;;;;;5056407;28;20177;-32
2023/07/26 11:29:13;;;;;;;2.10;1.60;;;15.50;99.90;;;;;;5057055;28;20193;-33
2023/07/26 11:31:40;;;;;;;2.73;1.87;;;15.60;99.90;;;;;;5059246;28;20199;-32
2023/07/26 11:34:22;;;;;;;2.70;2.00;;;15.60;99.90;;;;;;5043802;28;20177;-33
2023/07/26 11:36:48;;;;;;;3.47;1.60;;;15.60;99.90;;;;;;5055685;28;20279;-33
2023/07/26 11:39:22;;;;;;;2.50;1.40;;;15.70;99.90;;;;;;5041468;28;20202;-33
2023/07/26 11:41:52;;;;;;;1.37;1.27;;;15.80;99.90;;;;;;5036499;28;20178;-32
2023/07/26 11:44:22;;;;;;;1.40;1.10;;;15.80;99.90;;;;;;5035801;28;20212;-33
2023/07/26 11:46:49;;;;;;;1.30;1.20;;;15.80;99.90;;;;;;5039188;28;20182;-32
2023/07/26 11:49:23;;;;;;;1.70;1.10;;;15.80;99.90;;;;;;5040381;28;20288;-33
2023/07/26 11:51:50;;;;;;;1.30;1.20;;;15.80;99.90;;;;;;5048793;28;20182;-33
2023/07/26 11:54:17;;;;;;;2.33;1.40;;;15.90;99.90;;;;;;5044421;28;20277;-33
2023/07/26 11:56:44;;;;;;;2.90;1.30;;;16.00;99.90;;;;;;5049824;28;20216;-33
2023/07/26 11:59:11;;;;;;;1.30;1.20;;;16.00;99.90;;;;;;5030403;28;20377;-33
2023/07/26 12:01:37;;;;;;;1.40;1.30;;;16.20;99.90;;;;;;5046965;28;20268;-33
2023/07/26 12:04:10;;;;;;;1.57;1.23;;;16.30;99.90;;;;;;5046989;28;20182;-33
2023/07/26 12:06:36;;;;;;;2.30;1.40;;;16.30;99.90;;;;;;5063645;28;20167;-33
2023/07/26 12:09:14;;;;;;;3.03;1.60;;;16.30;99.90;;;;;;5049752;28;20283;-33
2023/07/26 12:11:55;;;;;;;2.83;1.30;;;16.40;99.90;;;;;;5042167;28;20187;-33
2023/07/26 12:14:21;;;;;;;1.83;1.57;;;16.40;99.90;;;;;;5029191;28;20303;-31
2023/07/26 12:16:52;;;;;;;2.77;1.50;;;16.20;99.90;;;;;;5039860;28;20190;-33
2023/07/26 12:19:23;;;;;;;1.57;1.30;;;16.20;99.90;;;;;;5042150;28;20219;-35
2023/07/26 12:21:49;;;;;;;1.50;1.33;;;16.10;99.90;;;;;;5045258;28;20170;-32
2023/07/26 12:24:16;;;;;;;1.50;1.40;;;16.10;99.90;;;;;;5045803;28;20174;-33
2023/07/26 12:26:47;;;;;;;3.27;1.80;;;16.00;99.90;;;;;;5032717;28;20186;-32
2023/07/26 12:29:16;;;;;;;3.00;1.60;;;16.00;99.90;;;;;;5047964;28;20206;-32
2023/07/26 12:31:42;;;;;;;2.00;1.73;;;16.00;99.90;;;;;;5047726;28;20189;-32
2023/07/26 12:34:13;;;;;;;3.30;1.73;;;16.00;99.90;;;;;;5045969;28;20182;-33
2023/07/26 12:36:46;;;;;;;2.20;1.70;;;16.20;99.90;;;;;;5061071;28;20189;-32
2023/07/26 12:39:24;;;;;;;1.73;1.47;;;16.30;99.90;;;;;;5049887;28;20205;-32
2023/07/26 12:41:52;;;;;;;2.43;1.47;;;16.50;99.90;;;;;;5048071;28;20284;-32
2023/07/26 12:44:21;;;;;;;3.90;1.73;;;16.90;99.90;;;;;;5048189;28;20289;-32
2023/07/26 12:46:50;;;;;;;1.40;1.30;;;17.30;99.90;;;;;;5043180;28;20237;-33